Time;durP1;ratioP1;P1;durP2;ratioP2;P2;SDS_P1;SDS_P2;PMS_P1;PMS_P2;Temp;Humidity;BMP_temperature;BMP_pressure;BME280_temperature;BME280_humidity;BME280_pressure;Samples;Min_cycle;Max_cycle;Signal;HPM_P1;HPM_P2
2021/12/30 00:00:15;;;;;;;41.80;10.65;;;;;;;;;;5129085;27;20058;-64
2021/12/30 00:02:41;;;;;;;55.67;12.33;;;;;;;;;;5129205;27;20814;-64
2021/12/30 00:05:08;;;;;;;50.50;10.68;;;;;;;;;;5128791;27;20086;-64
2021/12/30 00:07:35;;;;;;;45.90;9.38;;;;;;;;;;5129445;27;20683;-64
2021/12/30 00:10:03;;;;;;;39.47;8.93;;;;;;;;;;5129173;27;20047;-64
2021/12/30 00:12:29;;;;;;;40.35;9.60;;;;;;;;;;5129964;27;20066;-64
2021/12/30 00:14:56;;;;;;;55.63;12.40;;;;;;;;;;5128884;27;20043;-64
2021/12/30 00:17:22;;;;;;;46.03;12.13;;;;;;;;;;5129230;27;20050;-64
2021/12/30 00:19:48;;;;;;;46.88;10.95;;;;;;;;;;5129441;27;20048;-64
2021/12/30 00:22:15;;;;;;;53.13;11.65;;;;;;;;;;5128814;27;20048;-64
2021/12/30 00:24:41;;;;;;;53.15;12.23;;;;;;;;;;5128124;27;20142;-64
2021/12/30 00:27:07;;;;;;;58.83;12.57;;;;;;;;;;5128172;27;20086;-64
2021/12/30 00:29:34;;;;;;;48.55;13.30;;;;;;;;;;5129012;27;20407;-64
2021/12/30 00:32:00;;;;;;;61.75;13.23;;;;;;;;;;5128907;27;20051;-64
2021/12/30 00:34:26;;;;;;;56.58;12.43;;;;;;;;;;5129345;27;20077;-64
2021/12/30 00:36:53;;;;;;;48.28;11.95;;;;;;;;;;5128651;27;20050;-64
2021/12/30 00:39:19;;;;;;;55.72;12.07;;;;;;;;;;5128868;27;20052;-64
2021/12/30 00:41:46;;;;;;;44.13;12.20;;;;;;;;;;5128356;27;20051;-63
2021/12/30 00:44:12;;;;;;;54.65;12.15;;;;;;;;;;5128509;27;20056;-64
2021/12/30 00:46:38;;;;;;;56.40;11.63;;;;;;;;;;5128623;27;20050;-66
2021/12/30 00:49:05;;;;;;;55.50;12.40;;;;;;;;;;5129431;27;20600;-63
2021/12/30 00:51:31;;;;;;;51.75;11.15;;;;;;;;;;5128915;27;20054;-63
2021/12/30 00:53:58;;;;;;;57.38;10.82;;;;;;;;;;5128478;27;22221;-64
2021/12/30 00:56:24;;;;;;;61.75;11.38;;;;;;;;;;5128446;27;20060;-64
2021/12/30 00:58:52;;;;;;;57.78;10.95;;;;;;;;;;5128194;27;20059;-64
2021/12/30 01:01:18;;;;;;;58.75;10.60;;;;;;;;;;5128317;27;20570;-63
2021/12/30 01:03:45;;;;;;;47.25;9.75;;;;;;;;;;5128999;27;21519;-63
2021/12/30 01:06:12;;;;;;;61.22;10.60;;;;;;;;;;5128703;27;20059;-64
2021/12/30 01:08:38;;;;;;;51.92;8.60;;;;;;;;;;5128448;27;20060;-63
2021/12/30 01:11:07;;;;;;;53.08;10.10;;;;;;;;;;5128681;27;20099;-63
2021/12/30 01:13:39;;;;;;;62.45;11.25;;;;;;;;;;5128646;27;20048;-64
2021/12/30 01:16:15;;;;;;;50.42;9.63;;;;;;;;;;5128452;27;20061;-64
2021/12/30 01:18:55;;;;;;;50.15;11.10;;;;;;;;;;5128881;27;20566;-64
2021/12/30 01:21:22;;;;;;;60.53;11.05;;;;;;;;;;5128534;27;20055;-64
2021/12/30 01:23:48;;;;;;;68.65;11.70;;;;;;;;;;5127770;27;20054;-64
2021/12/30 01:26:15;;;;;;;57.67;11.95;;;;;;;;;;5129111;27;20052;-64
2021/12/30 01:28:41;;;;;;;56.60;11.65;;;;;;;;;;5128144;27;20055;-63
2021/12/30 01:31:08;;;;;;;61.78;12.68;;;;;;;;;;5127843;27;20166;-64
2021/12/30 01:33:34;;;;;;;58.85;11.77;;;;;;;;;;5128719;27;20523;-63
2021/12/30 01:36:01;;;;;;;68.75;12.65;;;;;;;;;;5109623;27;20043;-64
2021/12/30 01:38:27;;;;;;;61.63;13.13;;;;;;;;;;5128199;27;20067;-64
2021/12/30 01:40:54;;;;;;;70.32;12.93;;;;;;;;;;5128003;27;20052;-64
2021/12/30 01:43:21;;;;;;;49.60;12.40;;;;;;;;;;5127515;27;20055;-63
2021/12/30 01:45:48;;;;;;;66.45;13.38;;;;;;;;;;5128228;27;20138;-64
2021/12/30 01:48:14;;;;;;;54.75;13.55;;;;;;;;;;5127719;27;20858;-64
2021/12/30 01:50:41;;;;;;;61.72;13.38;;;;;;;;;;5130828;27;20062;-64
2021/12/30 01:53:08;;;;;;;66.38;14.75;;;;;;;;;;5131308;27;20043;-64
2021/12/30 01:55:37;;;;;;;64.47;15.23;;;;;;;;;;5131934;27;20100;-63
2021/12/30 01:58:04;;;;;;;63.75;15.98;;;;;;;;;;5130692;27;20151;-63
2021/12/30 02:00:32;;;;;;;65.90;15.18;;;;;;;;;;5131529;27;20062;-63
2021/12/30 02:03:00;;;;;;;63.17;16.93;;;;;;;;;;5131172;27;20058;-64
2021/12/30 02:05:27;;;;;;;;;;;;;;;;;;5132280;27;20155;-64
2021/12/30 02:07:54;;;;;;;63.88;15.70;;;;;;;;;;5130881;27;42290;-63
2021/12/30 02:10:21;;;;;;;64.93;15.70;;;;;;;;;;5130639;27;20077;-66
2021/12/30 02:12:48;;;;;;;78.72;17.05;;;;;;;;;;5131261;27;20497;-64
2021/12/30 02:15:15;;;;;;;77.82;17.77;;;;;;;;;;5131084;27;20165;-64
2021/12/30 02:17:42;;;;;;;66.88;18.23;;;;;;;;;;5131088;27;20048;-64
2021/12/30 02:20:11;;;;;;;64.40;16.33;;;;;;;;;;5130729;27;20056;-64
2021/12/30 02:22:37;;;;;;;75.90;16.77;;;;;;;;;;5131596;27;20052;-64
2021/12/30 02:25:04;;;;;;;71.32;18.98;;;;;;;;;;5131001;27;20052;-64
2021/12/30 02:27:31;;;;;;;64.72;16.33;;;;;;;;;;5130632;27;20052;-64
2021/12/30 02:29:58;;;;;;;80.10;19.17;;;;;;;;;;5130885;27;20051;-64
2021/12/30 02:32:25;;;;;;;64.88;15.68;;;;;;;;;;5130679;27;20493;-64
2021/12/30 02:34:52;;;;;;;85.40;18.13;;;;;;;;;;5130886;27;20051;-64
2021/12/30 02:37:19;;;;;;;64.20;15.32;;;;;;;;;;5130440;27;20056;-64
2021/12/30 02:39:51;;;;;;;61.25;16.13;;;;;;;;;;5131160;27;20056;-64
2021/12/30 02:42:23;;;;;;;60.80;16.35;;;;;;;;;;5130050;27;20051;-64
2021/12/30 02:44:50;;;;;;;74.82;17.63;;;;;;;;;;5130291;27;20469;-64
2021/12/30 02:47:16;;;;;;;67.47;16.67;;;;;;;;;;5131012;27;20894;-64
2021/12/30 02:49:43;;;;;;;66.03;17.83;;;;;;;;;;5130712;27;20043;-64
2021/12/30 02:52:09;;;;;;;60.53;16.77;;;;;;;;;;5130636;27;20074;-64
2021/12/30 02:54:37;;;;;;;60.15;18.48;;;;;;;;;;5130111;27;20520;-64
2021/12/30 02:57:04;;;;;;;54.97;16.05;;;;;;;;;;5130563;27;20195;-64
2021/12/30 02:59:30;;;;;;;61.83;17.52;;;;;;;;;;5130057;27;20048;-65
2021/12/30 03:01:56;;;;;;;61.35;17.02;;;;;;;;;;5130161;27;20063;-66
2021/12/30 03:04:23;;;;;;;61.20;17.50;;;;;;;;;;5130249;27;20472;-64
2021/12/30 03:06:50;;;;;;;65.45;17.33;;;;;;;;;;5130010;27;20048;-64
2021/12/30 03:09:16;;;;;;;60.28;17.80;;;;;;;;;;5130343;27;20877;-63
2021/12/30 03:11:43;;;;;;;65.78;18.02;;;;;;;;;;5130456;27;20514;-64
2021/12/30 03:14:09;;;;;;;51.35;17.83;;;;;;;;;;5130014;27;20442;-66
2021/12/30 03:16:37;;;;;;;51.28;17.73;;;;;;;;;;5130092;27;20095;-63
2021/12/30 03:19:04;;;;;;;55.45;19.65;;;;;;;;;;5130127;27;20134;-64
2021/12/30 03:21:31;;;;;;;54.45;17.27;;;;;;;;;;5130661;27;20063;-64
2021/12/30 03:23:58;;;;;;;76.05;19.30;;;;;;;;;;5130104;27;20655;-64
2021/12/30 03:26:25;;;;;;;51.83;19.42;;;;;;;;;;5129966;27;20553;-64
2021/12/30 03:28:51;;;;;;;64.28;17.73;;;;;;;;;;5130168;27;20048;-64
2021/12/30 03:31:18;;;;;;;57.95;17.92;;;;;;;;;;5130033;27;20535;-64
2021/12/30 03:33:45;;;;;;;59.08;17.77;;;;;;;;;;5131183;27;20048;-64
2021/12/30 03:36:12;;;;;;;66.32;19.00;;;;;;;;;;5129754;27;20060;-64
2021/12/30 03:38:41;;;;;;;54.42;18.02;;;;;;;;;;5129665;27;20043;-64
2021/12/30 03:41:09;;;;;;;54.00;16.75;;;;;;;;;;5129629;27;20058;-64
2021/12/30 03:43:35;;;;;;;52.30;17.67;;;;;;;;;;5128984;27;20044;-64
2021/12/30 03:46:03;;;;;;;50.67;16.70;;;;;;;;;;5129923;27;20075;-64
2021/12/30 03:48:34;;;;;;;46.27;16.53;;;;;;;;;;5129680;27;20105;-64
2021/12/30 03:51:05;;;;;;;49.78;16.33;;;;;;;;;;5129860;27;20062;-64
2021/12/30 03:53:38;;;;;;;37.03;14.95;;;;;;;;;;5129408;27;20054;-64
2021/12/30 03:56:08;;;;;;;36.17;15.63;;;;;;;;;;5129326;27;20076;-64
2021/12/30 03:58:35;;;;;;;47.50;15.27;;;;;;;;;;5129954;27;20051;-64
2021/12/30 04:01:01;;;;;;;34.33;15.25;;;;;;;;;;5129691;27;20139;-63
2021/12/30 04:03:28;;;;;;;35.95;15.13;;;;;;;;;;5129341;27;20071;-64
2021/12/30 04:05:54;;;;;;;40.42;15.55;;;;;;;;;;5128948;27;20076;-65
2021/12/30 04:08:21;;;;;;;38.00;16.65;;;;;;;;;;5129424;27;20058;-64
2021/12/30 04:10:47;;;;;;;37.30;16.25;;;;;;;;;;5129243;27;20056;-65
2021/12/30 04:13:13;;;;;;;50.67;17.65;;;;;;;;;;5128713;27;20619;-64
2021/12/30 04:15:40;;;;;;;43.50;17.70;;;;;;;;;;5129313;27;20476;-64
2021/12/30 04:18:06;;;;;;;40.03;18.83;;;;;;;;;;5129361;27;20054;-65
2021/12/30 04:20:32;;;;;;;44.67;20.95;;;;;;;;;;5129186;27;20057;-64
2021/12/30 04:22:59;;;;;;;49.65;22.80;;;;;;;;;;5127939;27;20098;-64
2021/12/30 04:25:25;;;;;;;59.65;24.70;;;;;;;;;;5129551;27;20170;-64
2021/12/30 04:27:51;;;;;;;58.92;28.05;;;;;;;;;;5129180;27;20502;-64
2021/12/30 04:30:18;;;;;;;55.47;26.10;;;;;;;;;;5128314;27;20051;-64
2021/12/30 04:32:44;;;;;;;56.33;25.25;;;;;;;;;;5128616;27;20050;-64
2021/12/30 04:35:11;;;;;;;46.92;22.58;;;;;;;;;;5128544;27;20055;-64
2021/12/30 04:37:38;;;;;;;51.17;22.77;;;;;;;;;;5128265;27;21032;-64
2021/12/30 04:40:05;;;;;;;42.38;18.80;;;;;;;;;;5129286;27;20052;-64
2021/12/30 04:42:32;;;;;;;32.55;16.15;;;;;;;;;;5128509;27;20065;-64
2021/12/30 04:44:58;;;;;;;33.13;14.95;;;;;;;;;;5128886;27;20054;-64
2021/12/30 04:47:25;;;;;;;23.10;12.68;;;;;;;;;;5129125;27;20051;-64
2021/12/30 04:49:53;;;;;;;28.52;12.63;;;;;;;;;;5129011;27;20056;-64
2021/12/30 04:52:20;;;;;;;29.02;13.50;;;;;;;;;;5128639;27;20057;-64
2021/12/30 04:54:46;;;;;;;25.70;12.82;;;;;;;;;;5128339;27;20939;-63
2021/12/30 04:57:12;;;;;;;30.63;13.55;;;;;;;;;;5128772;27;20060;-64
2021/12/30 04:59:39;;;;;;;30.20;12.30;;;;;;;;;;5128888;27;20571;-64
2021/12/30 05:02:05;;;;;;;22.40;10.88;;;;;;;;;;5128869;27;20051;-64
2021/12/30 05:04:32;;;;;;;22.52;10.10;;;;;;;;;;5128449;27;20048;-64
2021/12/30 05:06:58;;;;;;;22.45;9.93;;;;;;;;;;5127607;27;20054;-64
2021/12/30 05:09:24;;;;;;;14.35;7.43;;;;;;;;;;5128823;27;20184;-64
2021/12/30 05:11:51;;;;;;;18.27;8.40;;;;;;;;;;5128002;27;20498;-64
2021/12/30 05:14:17;;;;;;;19.67;8.70;;;;;;;;;;5128274;27;20077;-64
2021/12/30 05:16:45;;;;;;;18.83;8.93;;;;;;;;;;5127952;27;20071;-64
2021/12/30 05:19:11;;;;;;;21.08;9.05;;;;;;;;;;5128331;27;20075;-64
2021/12/30 05:21:37;;;;;;;22.48;9.50;;;;;;;;;;5128961;27;20054;-64
2021/12/30 05:24:04;;;;;;;22.75;10.88;;;;;;;;;;5128256;27;20158;-64
2021/12/30 05:26:31;;;;;;;21.88;10.75;;;;;;;;;;5131444;27;20130;-64
2021/12/30 05:28:58;;;;;;;27.58;10.98;;;;;;;;;;5131435;27;20062;-64
2021/12/30 05:31:25;;;;;;;30.23;13.80;;;;;;;;;;5132113;27;20131;-64
2021/12/30 05:33:52;;;;;;;35.17;14.50;;;;;;;;;;5131692;27;20120;-63
2021/12/30 05:36:18;;;;;;;47.08;17.40;;;;;;;;;;5131964;27;20059;-64
2021/12/30 05:38:45;;;;;;;48.50;18.23;;;;;;;;;;5131502;27;20552;-64
2021/12/30 05:41:14;;;;;;;52.65;18.92;;;;;;;;;;5131663;27;20143;-63
2021/12/30 05:43:40;;;;;;;47.60;17.52;;;;;;;;;;5131715;27;20151;-64
2021/12/30 05:46:06;;;;;;;54.30;19.35;;;;;;;;;;5131133;27;20055;-64
2021/12/30 05:48:33;;;;;;;54.40;20.75;;;;;;;;;;5131901;27;20059;-64
2021/12/30 05:51:00;;;;;;;58.35;19.55;;;;;;;;;;5130884;27;20432;-63
2021/12/30 05:53:29;;;;;;;74.75;21.83;;;;;;;;;;5131681;27;20100;-64
2021/12/30 05:55:56;;;;;;;68.82;21.13;;;;;;;;;;5131528;27;20166;-64
2021/12/30 05:58:22;;;;;;;60.75;21.70;;;;;;;;;;5131412;27;20052;-64
2021/12/30 06:00:49;;;;;;;63.10;20.92;;;;;;;;;;5131300;27;20062;-64
2021/12/30 06:03:19;;;;;;;51.00;17.90;;;;;;;;;;5131730;27;20055;-64
2021/12/30 06:05:49;;;;;;;57.13;19.63;;;;;;;;;;5131704;27;20055;-64
2021/12/30 06:08:15;;;;;;;57.95;19.42;;;;;;;;;;5131598;27;20062;-64
2021/12/30 06:10:43;;;;;;;63.92;20.48;;;;;;;;;;5131720;27;20497;-64
2021/12/30 06:13:10;;;;;;;49.17;19.17;;;;;;;;;;5131292;27;20048;-64
2021/12/30 06:15:37;;;;;;;51.50;19.23;;;;;;;;;;5130852;27;20058;-63
2021/12/30 06:18:03;;;;;;;56.53;19.40;;;;;;;;;;5130572;27;20051;-64
2021/12/30 06:20:30;;;;;;;46.33;19.13;;;;;;;;;;5130765;27;20054;-64
2021/12/30 06:22:57;;;;;;;49.58;19.95;;;;;;;;;;5130519;27;20147;-64
2021/12/30 06:25:23;;;;;;;52.30;19.13;;;;;;;;;;5130940;27;20158;-64
2021/12/30 06:27:54;;;;;;;41.78;17.25;;;;;;;;;;5131267;27;20087;-64
2021/12/30 06:30:21;;;;;;;41.88;17.45;;;;;;;;;;5131207;27;20074;-64
2021/12/30 06:32:47;;;;;;;41.00;17.45;;;;;;;;;;5130826;27;20128;-64
2021/12/30 06:35:13;;;;;;;42.13;17.52;;;;;;;;;;5130509;27;20109;-64
2021/12/30 06:37:40;;;;;;;39.85;16.30;;;;;;;;;;5130462;27;20932;-64
2021/12/30 06:40:07;;;;;;;35.80;16.38;;;;;;;;;;5130389;27;20054;-64
2021/12/30 06:42:34;;;;;;;32.20;12.88;;;;;;;;;;5130632;27;20876;-64
2021/12/30 06:45:00;;;;;;;33.88;13.15;;;;;;;;;;5131373;27;20138;-64
2021/12/30 06:47:27;;;;;;;29.02;12.00;;;;;;;;;;5130679;27;20182;-64
2021/12/30 06:49:59;;;;;;;27.70;10.45;;;;;;;;;;5130793;27;20058;-64
2021/12/30 06:52:27;;;;;;;22.52;9.27;;;;;;;;;;5130412;27;20093;-64
2021/12/30 06:54:53;;;;;;;21.05;9.00;;;;;;;;;;5130527;27;20055;-64
2021/12/30 06:57:20;;;;;;;18.42;7.95;;;;;;;;;;5130531;27;20060;-64
2021/12/30 06:59:46;;;;;;;16.23;5.75;;;;;;;;;;5131076;27;20044;-64
2021/12/30 07:02:13;;;;;;;17.38;6.45;;;;;;;;;;5129853;27;20136;-64
2021/12/30 07:04:40;;;;;;;20.48;6.40;;;;;;;;;;5130420;27;20506;-64
2021/12/30 07:07:06;;;;;;;13.55;5.93;;;;;;;;;;5130279;27;20536;-64
2021/12/30 07:09:33;;;;;;;16.80;5.50;;;;;;;;;;5130363;27;20061;-64
2021/12/30 07:11:59;;;;;;;16.20;5.05;;;;;;;;;;5129816;27;20394;-64
2021/12/30 07:14:26;;;;;;;14.15;5.70;;;;;;;;;;5130750;27;20059;-64
2021/12/30 07:16:52;;;;;;;16.08;5.30;;;;;;;;;;5130201;27;20508;-64
2021/12/30 07:19:18;;;;;;;14.65;5.18;;;;;;;;;;5130090;27;20047;-64
2021/12/30 07:21:45;;;;;;;13.63;5.50;;;;;;;;;;5130307;27;20151;-64
2021/12/30 07:24:12;;;;;;;17.25;6.13;;;;;;;;;;5129726;27;20472;-63
2021/12/30 07:26:38;;;;;;;13.15;6.30;;;;;;;;;;5130539;27;20058;-64
2021/12/30 07:29:04;;;;;;;12.77;5.03;;;;;;;;;;5130132;27;20058;-64
2021/12/30 07:31:31;;;;;;;11.40;4.30;;;;;;;;;;5130217;27;20597;-64
2021/12/30 07:33:57;;;;;;;9.88;3.97;;;;;;;;;;5130044;27;20059;-64
2021/12/30 07:36:24;;;;;;;9.98;3.42;;;;;;;;;;5129081;27;20039;-64
2021/12/30 07:38:50;;;;;;;11.38;4.30;;;;;;;;;;5129440;27;20051;-64
2021/12/30 07:41:17;;;;;;;12.55;4.60;;;;;;;;;;5129492;27;20548;-64
2021/12/30 07:43:43;;;;;;;14.43;4.88;;;;;;;;;;5129187;27;20054;-64
2021/12/30 07:46:11;;;;;;;10.32;4.10;;;;;;;;;;5129749;27;20058;-64
2021/12/30 07:48:38;;;;;;;10.13;3.65;;;;;;;;;;5128953;27;20488;-64
2021/12/30 07:51:04;;;;;;;13.07;4.10;;;;;;;;;;5129012;27;20058;-65
2021/12/30 07:53:30;;;;;;;9.30;4.00;;;;;;;;;;5130243;27;20520;-64
2021/12/30 07:55:56;;;;;;;13.30;4.88;;;;;;;;;;5130060;27;20052;-65
2021/12/30 07:58:23;;;;;;;13.82;5.25;;;;;;;;;;5129377;27;20047;-64
2021/12/30 08:00:49;;;;;;;17.55;5.35;;;;;;;;;;5128992;27;20054;-64
2021/12/30 08:03:15;;;;;;;19.10;5.38;;;;;;;;;;5129460;27;20578;-64
2021/12/30 08:05:42;;;;;;;16.92;5.75;;;;;;;;;;5130068;27;20051;-64
2021/12/30 08:08:08;;;;;;;16.15;5.75;;;;;;;;;;5129275;27;20061;-65
2021/12/30 08:10:35;;;;;;;17.77;6.35;;;;;;;;;;5129398;27;20563;-64
2021/12/30 08:13:02;;;;;;;24.25;7.00;;;;;;;;;;5129391;27;20055;-64
2021/12/30 08:15:28;;;;;;;18.73;7.25;;;;;;;;;;5128748;27;20144;-65
2021/12/30 08:17:55;;;;;;;18.45;6.90;;;;;;;;;;5128859;27;20085;-64
2021/12/30 08:20:24;;;;;;;20.08;7.82;;;;;;;;;;5129187;27;20158;-64
2021/12/30 08:22:51;;;;;;;22.42;8.65;;;;;;;;;;5129306;27;20087;-65
2021/12/30 08:25:18;;;;;;;25.10;7.50;;;;;;;;;;5129620;27;20051;-65
2021/12/30 08:27:44;;;;;;;20.23;6.95;;;;;;;;;;5128615;27;20055;-65
2021/12/30 08:30:12;;;;;;;20.40;6.82;;;;;;;;;;5129192;27;20058;-64
2021/12/30 08:32:39;;;;;;;24.03;6.50;;;;;;;;;;5128549;27;20081;-64
2021/12/30 08:35:07;;;;;;;19.58;7.05;;;;;;;;;;5129179;27;20276;-64
2021/12/30 08:37:34;;;;;;;23.20;6.22;;;;;;;;;;5129373;27;20056;-65
2021/12/30 08:40:02;;;;;;;18.27;6.00;;;;;;;;;;5128787;27;20059;-64
2021/12/30 08:42:29;;;;;;;31.85;6.53;;;;;;;;;;5129177;27;20044;-65
2021/12/30 08:44:57;;;;;;;19.08;6.05;;;;;;;;;;5128772;27;20055;-64
2021/12/30 08:47:24;;;;;;;31.40;8.13;;;;;;;;;;5128415;27;20044;-65
2021/12/30 08:49:53;;;;;;;23.10;6.65;;;;;;;;;;5126613;27;20054;-64
2021/12/30 08:52:21;;;;;;;28.95;6.60;;;;;;;;;;5127333;27;20104;-64
2021/12/30 08:54:48;;;;;;;26.50;6.15;;;;;;;;;;5128204;27;20148;-64
2021/12/30 08:57:15;;;;;;;25.10;6.88;;;;;;;;;;5128677;27;20143;-64
2021/12/30 08:59:41;;;;;;;26.15;5.72;;;;;;;;;;5130901;27;20508;-63
2021/12/30 09:02:10;;;;;;;37.72;7.10;;;;;;;;;;5130590;27;20055;-64
2021/12/30 09:04:36;;;;;;;29.75;6.72;;;;;;;;;;5131899;27;20075;-64
2021/12/30 09:07:03;;;;;;;35.17;6.47;;;;;;;;;;5131858;27;20083;-64
2021/12/30 09:09:29;;;;;;;29.40;7.22;;;;;;;;;;5132227;27;20058;-64
2021/12/30 09:11:56;;;;;;;35.60;6.65;;;;;;;;;;5132341;27;20529;-64
2021/12/30 09:14:22;;;;;;;36.03;6.65;;;;;;;;;;5132052;27;20050;-63
2021/12/30 09:16:49;;;;;;;33.28;6.43;;;;;;;;;;5131338;27;20055;-64
2021/12/30 09:19:16;;;;;;;29.58;7.07;;;;;;;;;;5113542;27;20202;-64
2021/12/30 09:21:48;;;;;;;34.20;7.03;;;;;;;;;;5131705;27;20538;-63
2021/12/30 09:24:14;;;;;;;31.65;6.57;;;;;;;;;;5131789;27;20058;-65
2021/12/30 09:26:40;;;;;;;31.75;6.30;;;;;;;;;;5132421;27;20063;-65
2021/12/30 09:29:10;;;;;;;40.10;6.82;;;;;;;;;;5131873;27;20058;-65
2021/12/30 09:31:38;;;;;;;36.92;6.85;;;;;;;;;;5131364;27;20062;-65
2021/12/30 09:34:04;;;;;;;32.50;6.63;;;;;;;;;;5131553;27;20130;-65
2021/12/30 09:36:30;;;;;;;36.80;6.68;;;;;;;;;;5131621;27;20819;-64
2021/12/30 09:38:57;;;;;;;32.28;6.90;;;;;;;;;;5131032;27;20052;-64
2021/12/30 09:41:23;;;;;;;25.65;5.53;;;;;;;;;;5131297;27;20557;-64
2021/12/30 09:43:49;;;;;;;37.35;7.05;;;;;;;;;;5131855;27;20051;-64
2021/12/30 09:46:16;;;;;;;32.25;6.60;;;;;;;;;;5132007;27;20062;-64
2021/12/30 09:48:43;;;;;;;27.80;5.90;;;;;;;;;;5131621;27;20118;-64
2021/12/30 09:51:10;;;;;;;37.53;5.65;;;;;;;;;;5131480;27;20043;-64
2021/12/30 09:53:36;;;;;;;37.15;5.88;;;;;;;;;;5131456;27;20054;-65
2021/12/30 09:56:02;;;;;;;36.13;5.88;;;;;;;;;;5131647;27;20058;-64
2021/12/30 09:58:29;;;;;;;35.05;5.75;;;;;;;;;;5131705;27;20055;-64
2021/12/30 10:00:56;;;;;;;27.88;5.38;;;;;;;;;;5132056;27;20505;-64
2021/12/30 10:03:23;;;;;;;25.60;4.67;;;;;;;;;;5132090;27;20587;-65
2021/12/30 10:05:50;;;;;;;30.90;5.05;;;;;;;;;;5131580;27;20293;-64
2021/12/30 10:08:21;;;;;;;24.75;5.15;;;;;;;;;;5131626;27;20036;-64
2021/12/30 10:10:48;;;;;;;36.63;6.00;;;;;;;;;;5130717;27;20052;-64
2021/12/30 10:13:16;;;;;;;24.38;3.88;;;;;;;;;;5131582;27;20066;-64
2021/12/30 10:15:47;;;;;;;28.10;4.85;;;;;;;;;;5131174;27;20055;-64
2021/12/30 10:18:13;;;;;;;27.15;4.80;;;;;;;;;;5130346;27;20051;-64
2021/12/30 10:20:41;;;;;;;23.05;4.63;;;;;;;;;;5130935;27;20557;-64
2021/12/30 10:23:18;;;;;;;21.67;5.32;;;;;;;;;;5130766;27;20579;-65
2021/12/30 10:25:48;;;;;;;22.60;4.25;;;;;;;;;;5131161;27;20654;-64
2021/12/30 10:28:17;;;;;;;22.17;5.00;;;;;;;;;;5130621;27;20051;-65
2021/12/30 10:30:44;;;;;;;30.13;5.50;;;;;;;;;;5130671;27;20051;-64
2021/12/30 10:33:12;;;;;;;20.05;4.07;;;;;;;;;;5130452;27;20503;-64
2021/12/30 10:35:39;;;;;;;23.83;4.60;;;;;;;;;;5131111;27;20082;-64
2021/12/30 10:38:09;;;;;;;19.73;4.25;;;;;;;;;;5121902;27;20512;-64
2021/12/30 10:40:36;;;;;;;21.27;4.03;;;;;;;;;;5120993;27;20117;-64
2021/12/30 10:43:20;;;;;;;25.83;4.57;;;;;;;;;;5128020;27;20146;-64
2021/12/30 10:46:26;;;;;;;24.13;4.28;;;;;;;;;;5116316;27;20052;-64
2021/12/30 10:48:52;;;;;;;25.00;5.65;;;;;;;;;;5065231;28;20052;-64
2021/12/30 10:51:18;;;;;;;32.30;5.40;;;;;;;;;;5056073;28;20053;-65
2021/12/30 10:53:45;;;;;;;21.17;4.10;;;;;;;;;;5082108;27;20058;-64
2021/12/30 10:56:21;;;;;;;25.38;4.70;;;;;;;;;;5123911;27;20058;-64
2021/12/30 10:58:47;;;;;;;22.60;4.20;;;;;;;;;;5120224;27;20047;-65
2021/12/30 11:01:18;;;;;;;22.60;3.90;;;;;;;;;;5119808;27;20056;-64
2021/12/30 11:03:56;;;;;;;22.17;4.28;;;;;;;;;;5130805;27;20047;-64
2021/12/30 11:06:22;;;;;;;29.45;4.63;;;;;;;;;;5121867;27;20048;-64
2021/12/30 11:09:02;;;;;;;17.40;4.25;;;;;;;;;;5113493;27;20176;-64
2021/12/30 11:11:29;;;;;;;24.17;4.28;;;;;;;;;;5119435;27;20402;-65
2021/12/30 11:14:06;;;;;;;22.67;4.10;;;;;;;;;;5130529;27;20052;-64
2021/12/30 11:16:50;;;;;;;21.80;3.78;;;;;;;;;;5129375;27;20082;-64
2021/12/30 11:19:17;;;;;;;24.67;5.03;;;;;;;;;;5129756;27;20054;-65
2021/12/30 11:21:44;;;;;;;17.77;4.00;;;;;;;;;;5118616;27;20051;-64
2021/12/30 11:24:11;;;;;;;20.95;4.57;;;;;;;;;;5120049;27;20858;-64
2021/12/30 11:26:37;;;;;;;20.08;5.43;;;;;;;;;;5131413;27;20056;-64
2021/12/30 11:29:05;;;;;;;22.42;4.43;;;;;;;;;;5129879;27;20167;-64
2021/12/30 11:31:32;;;;;;;24.93;4.53;;;;;;;;;;5130428;27;20058;-64
2021/12/30 11:33:59;;;;;;;12.88;3.97;;;;;;;;;;5130015;27;20493;-64
2021/12/30 11:36:29;;;;;;;19.75;4.10;;;;;;;;;;5129851;27;20134;-64
2021/12/30 11:39:00;;;;;;;17.00;3.92;;;;;;;;;;5115584;27;20056;-64
2021/12/30 11:41:28;;;;;;;22.02;4.65;;;;;;;;;;5109243;28;20052;-65
2021/12/30 11:43:54;;;;;;;21.42;4.43;;;;;;;;;;5110445;27;20139;-65
2021/12/30 11:46:40;;;;;;;20.50;4.55;;;;;;;;;;5120986;27;20520;-64
2021/12/30 11:49:08;;;;;;;22.05;4.82;;;;;;;;;;5109643;28;20052;-65
2021/12/30 11:51:40;;;;;;;14.80;3.90;;;;;;;;;;5128137;27;20055;-66
2021/12/30 11:54:42;;;;;;;23.15;4.35;;;;;;;;;;5130072;27;20097;-65
2021/12/30 11:57:23;;;;;;;23.63;4.68;;;;;;;;;;5045964;28;20095;-64
2021/12/30 11:59:49;;;;;;;20.80;4.43;;;;;;;;;;5104754;27;20058;-65
2021/12/30 12:02:35;;;;;;;18.67;3.83;;;;;;;;;;5130361;27;20051;-65
2021/12/30 12:05:30;;;;;;;19.98;5.43;;;;;;;;;;5129615;27;20062;-65
2021/12/30 12:08:04;;;;;;;18.23;4.05;;;;;;;;;;5127414;27;20537;-64
2021/12/30 12:10:30;;;;;;;17.70;3.92;;;;;;;;;;5121874;27;20052;-65
2021/12/30 12:12:57;;;;;;;18.63;3.95;;;;;;;;;;5127557;27;20489;-65
2021/12/30 12:15:41;;;;;;;19.98;4.40;;;;;;;;;;5127488;27;20156;-65
2021/12/30 12:18:11;;;;;;;22.60;4.93;;;;;;;;;;5130250;27;20047;-66
2021/12/30 12:20:49;;;;;;;14.75;4.13;;;;;;;;;;5128920;27;20054;-65
2021/12/30 12:23:34;;;;;;;24.98;5.82;;;;;;;;;;5129099;27;20539;-66
2021/12/30 12:26:06;;;;;;;26.00;4.63;;;;;;;;;;5116928;27;20583;-65
2021/12/30 12:28:32;;;;;;;27.05;4.25;;;;;;;;;;5109042;28;20050;-66
2021/12/30 12:31:02;;;;;;;23.27;4.93;;;;;;;;;;5117449;27;20481;-66
2021/12/30 12:33:32;;;;;;;17.27;4.45;;;;;;;;;;5127565;27;20094;-65
2021/12/30 12:35:59;;;;;;;17.10;4.00;;;;;;;;;;5127789;27;20944;-66
2021/12/30 12:38:38;;;;;;;17.50;4.18;;;;;;;;;;5129360;27;20052;-65
2021/12/30 12:41:37;;;;;;;18.25;3.72;;;;;;;;;;5126859;27;20124;-65
2021/12/30 12:44:04;;;;;;;14.38;4.00;;;;;;;;;;5058739;27;20056;-66
2021/12/30 12:46:39;;;;;;;16.40;3.90;;;;;;;;;;5129246;27;20055;-66
2021/12/30 12:49:06;;;;;;;16.40;4.25;;;;;;;;;;5128828;27;20134;-70
2021/12/30 12:51:34;;;;;;;19.13;4.80;;;;;;;;;;5128911;27;20094;-65
2021/12/30 12:54:03;;;;;;;13.55;4.20;;;;;;;;;;5128422;27;20048;-66
2021/12/30 12:56:31;;;;;;;12.50;4.32;;;;;;;;;;5128764;27;20062;-69
2021/12/30 12:59:01;;;;;;;16.10;4.38;;;;;;;;;;5126001;27;20078;-65
2021/12/30 13:01:30;;;;;;;21.27;4.32;;;;;;;;;;5128589;27;20052;-65
2021/12/30 13:03:58;;;;;;;18.40;4.47;;;;;;;;;;5128950;27;20082;-65
2021/12/30 13:06:39;;;;;;;20.23;4.90;;;;;;;;;;5112828;27;20538;-65
2021/12/30 13:09:08;;;;;;;14.13;3.72;;;;;;;;;;5126585;27;20058;-65
2021/12/30 13:11:38;;;;;;;20.17;4.22;;;;;;;;;;5128512;27;20056;-65
2021/12/30 13:14:24;;;;;;;19.73;4.10;;;;;;;;;;5128173;27;20048;-65
2021/12/30 13:16:55;;;;;;;18.23;4.95;;;;;;;;;;5117502;27;20090;-65
2021/12/30 13:19:23;;;;;;;14.40;3.83;;;;;;;;;;5127778;27;20146;-64
2021/12/30 13:21:55;;;;;;;15.60;4.50;;;;;;;;;;5121030;27;20518;-64
2021/12/30 13:24:27;;;;;;;15.88;3.90;;;;;;;;;;5121273;27;20051;-65
2021/12/30 13:26:54;;;;;;;23.13;4.32;;;;;;;;;;5128575;27;20127;-64
2021/12/30 13:29:27;;;;;;;13.90;3.67;;;;;;;;;;5127726;27;20048;-64
2021/12/30 13:32:00;;;;;;;20.95;4.22;;;;;;;;;;5125496;27;20154;-65
2021/12/30 13:34:27;;;;;;;15.52;3.72;;;;;;;;;;5116088;27;20074;-64
2021/12/30 13:37:06;;;;;;;16.83;3.90;;;;;;;;;;5128373;27;20048;-64
2021/12/30 13:39:34;;;;;;;18.60;4.40;;;;;;;;;;5126640;27;20056;-64
2021/12/30 13:42:01;;;;;;;17.80;4.15;;;;;;;;;;5125552;27;20636;-67
2021/12/30 13:44:44;;;;;;;17.13;3.47;;;;;;;;;;5120045;27;20052;-67
2021/12/30 13:47:14;;;;;;;24.13;4.35;;;;;;;;;;5110645;28;20143;-66
2021/12/30 13:49:41;;;;;;;22.65;4.05;;;;;;;;;;5121785;27;20135;-67
2021/12/30 13:52:07;;;;;;;15.13;4.05;;;;;;;;;;5131098;27;20060;-67
2021/12/30 13:54:34;;;;;;;21.55;3.67;;;;;;;;;;5124774;27;20056;-67
2021/12/30 13:57:00;;;;;;;21.13;3.80;;;;;;;;;;5124479;27;20051;-66
2021/12/30 13:59:30;;;;;;;21.05;4.28;;;;;;;;;;5131140;27;20055;-67
2021/12/30 14:01:59;;;;;;;16.30;3.63;;;;;;;;;;5131808;27;20170;-66
2021/12/30 14:04:37;;;;;;;20.08;4.32;;;;;;;;;;5132149;27;20047;-66
2021/12/30 14:07:03;;;;;;;17.77;4.00;;;;;;;;;;5122628;27;20569;-67
2021/12/30 14:09:30;;;;;;;20.23;3.90;;;;;;;;;;5120162;27;20059;-66
2021/12/30 14:12:00;;;;;;;17.38;4.30;;;;;;;;;;5131689;27;20137;-66
2021/12/30 14:14:30;;;;;;;18.77;4.25;;;;;;;;;;5110801;27;20113;-66
2021/12/30 14:17:03;;;;;;;14.52;4.07;;;;;;;;;;5110960;28;20056;-66
2021/12/30 14:19:31;;;;;;;21.33;5.13;;;;;;;;;;5111563;27;20506;-66
2021/12/30 14:21:57;;;;;;;18.67;4.57;;;;;;;;;;5125751;27;20051;-66
2021/12/30 14:24:25;;;;;;;15.73;4.57;;;;;;;;;;5127031;27;20055;-66
2021/12/30 14:26:56;;;;;;;16.48;4.72;;;;;;;;;;5110913;28;20078;-66
2021/12/30 14:29:28;;;;;;;18.30;4.18;;;;;;;;;;5118024;27;20490;-66